sensor_id;sensor_type;location;lat;lon;timestamp;P1;P2;P0
74333;PMS5003;62753;40.394;-80.022;2022-12-18T00:00:06;10;10;
74333;PMS5003;62753;40.394;-80.022;2022-12-18T00:02:31;10;10;
74333;PMS5003;62753;40.394;-80.022;2022-12-18T00:04:56;10;9;
74333;PMS5003;62753;40.394;-80.022;2022-12-18T00:07:22;9;9;
74333;PMS5003;62753;40.394;-80.022;2022-12-18T00:09:47;16;16;
74333;PMS5003;62753;40.394;-80.022;2022-12-18T00:12:13;10;10;
74333;PMS5003;62753;40.394;-80.022;2022-12-18T00:14:38;11;11;
74333;PMS5003;62753;40.394;-80.022;2022-12-18T00:17:04;10;10;
74333;PMS5003;62753;40.394;-80.022;2022-12-18T00:19:30;10;10;
74333;PMS5003;62753;40.394;-80.022;2022-12-18T00:21:55;12;10;
74333;PMS5003;62753;40.394;-80.022;2022-12-18T00:24:21;11;11;
74333;PMS5003;62753;40.394;-80.022;2022-12-18T00:26:46;13;13;
74333;PMS5003;62753;40.394;-80.022;2022-12-18T00:29:13;14;13;
74333;PMS5003;62753;40.394;-80.022;2022-12-18T00:31:38;14;12;
74333;PMS5003;62753;40.394;-80.022;2022-12-18T00:34:03;12;11;
74333;PMS5003;62753;40.394;-80.022;2022-12-18T00:36:30;10;10;
74333;PMS5003;62753;40.394;-80.022;2022-12-18T00:38:55;9;8;
74333;PMS5003;62753;40.394;-80.022;2022-12-18T00:41:21;14;12;
74333;PMS5003;62753;40.394;-80.022;2022-12-18T00:43:46;9;9;
74333;PMS5003;62753;40.394;-80.022;2022-12-18T00:46:12;11;11;
74333;PMS5003;62753;40.394;-80.022;2022-12-18T00:48:37;11;10;
74333;PMS5003;62753;40.394;-80.022;2022-12-18T00:51:03;13;11;
74333;PMS5003;62753;40.394;-80.022;2022-12-18T00:53:29;12;11;
74333;PMS5003;62753;40.394;-80.022;2022-12-18T00:55:54;13;12;
74333;PMS5003;62753;40.394;-80.022;2022-12-18T00:58:20;11;10;
74333;PMS5003;62753;40.394;-80.022;2022-12-18T01:00:45;14;14;
74333;PMS5003;62753;40.394;-80.022;2022-12-18T01:03:12;13;12;
74333;PMS5003;62753;40.394;-80.022;2022-12-18T01:05:38;13;13;
74333;PMS5003;62753;40.394;-80.022;2022-12-18T01:08:02;15;13;
74333;PMS5003;62753;40.394;-80.022;2022-12-18T01:10:28;16;15;
74333;PMS5003;62753;40.394;-80.022;2022-12-18T01:12:53;15;13;
74333;PMS5003;62753;40.394;-80.022;2022-12-18T01:15:19;18;16;
74333;PMS5003;62753;40.394;-80.022;2022-12-18T01:17:44;16;13;
74333;PMS5003;62753;40.394;-80.022;2022-12-18T01:20:10;26;22;
74333;PMS5003;62753;40.394;-80.022;2022-12-18T01:22:35;36;34;
74333;PMS5003;62753;40.394;-80.022;2022-12-18T01:25:00;17;16;
74333;PMS5003;62753;40.394;-80.022;2022-12-18T01:27:25;17;16;
74333;PMS5003;62753;40.394;-80.022;2022-12-18T01:29:51;16;16;
74333;PMS5003;62753;40.394;-80.022;2022-12-18T01:32:17;15;13;
74333;PMS5003;62753;40.394;-80.022;2022-12-18T01:34:42;13;13;
74333;PMS5003;62753;40.394;-80.022;2022-12-18T01:37:08;16;15;
74333;PMS5003;62753;40.394;-80.022;2022-12-18T01:39:33;17;16;
74333;PMS5003;62753;40.394;-80.022;2022-12-18T01:41:59;15;15;
74333;PMS5003;62753;40.394;-80.022;2022-12-18T01:46:50;20;19;
74333;PMS5003;62753;40.394;-80.022;2022-12-18T01:49:16;14;14;
74333;PMS5003;62753;40.394;-80.022;2022-12-18T01:51:42;17;16;
74333;PMS5003;62753;40.394;-80.022;2022-12-18T01:54:07;24;16;
74333;PMS5003;62753;40.394;-80.022;2022-12-18T01:56:32;18;16;
74333;PMS5003;62753;40.394;-80.022;2022-12-18T01:59:03;14;14;
74333;PMS5003;62753;40.394;-80.022;2022-12-18T02:01:23;15;14;
74333;PMS5003;62753;40.394;-80.022;2022-12-18T02:03:49;14;12;
74333;PMS5003;62753;40.394;-80.022;2022-12-18T02:06:15;18;18;
74333;PMS5003;62753;40.394;-80.022;2022-12-18T02:08:41;15;15;
74333;PMS5003;62753;40.394;-80.022;2022-12-18T02:11:06;15;15;
74333;PMS5003;62753;40.394;-80.022;2022-12-18T02:13:34;17;15;
74333;PMS5003;62753;40.394;-80.022;2022-12-18T02:15:57;18;17;
74333;PMS5003;62753;40.394;-80.022;2022-12-18T02:18:23;16;12;
74333;PMS5003;62753;40.394;-80.022;2022-12-18T02:20:47;18;17;
74333;PMS5003;62753;40.394;-80.022;2022-12-18T02:23:16;17;16;
74333;PMS5003;62753;40.394;-80.022;2022-12-18T02:25:42;17;17;
74333;PMS5003;62753;40.394;-80.022;2022-12-18T02:28:04;17;17;
74333;PMS5003;62753;40.394;-80.022;2022-12-18T02:30:30;18;17;
74333;PMS5003;62753;40.394;-80.022;2022-12-18T02:32:54;17;16;
74333;PMS5003;62753;40.394;-80.022;2022-12-18T02:35:22;18;18;
74333;PMS5003;62753;40.394;-80.022;2022-12-18T02:37:46;17;16;
74333;PMS5003;62753;40.394;-80.022;2022-12-18T02:40:11;22;19;
74333;PMS5003;62753;40.394;-80.022;2022-12-18T02:42:37;17;17;
74333;PMS5003;62753;40.394;-80.022;2022-12-18T02:45:02;19;19;
74333;PMS5003;62753;40.394;-80.022;2022-12-18T02:47:29;17;16;
74333;PMS5003;62753;40.394;-80.022;2022-12-18T02:49:55;17;17;
74333;PMS5003;62753;40.394;-80.022;2022-12-18T02:52:21;18;17;
74333;PMS5003;62753;40.394;-80.022;2022-12-18T02:54:49;16;16;
74333;PMS5003;62753;40.394;-80.022;2022-12-18T02:57:12;21;20;
74333;PMS5003;62753;40.394;-80.022;2022-12-18T02:59:36;19;18;
74333;PMS5003;62753;40.394;-80.022;2022-12-18T03:02:06;22;17;
74333;PMS5003;62753;40.394;-80.022;2022-12-18T03:04:26;22;22;
74333;PMS5003;62753;40.394;-80.022;2022-12-18T03:06:52;20;18;
74333;PMS5003;62753;40.394;-80.022;2022-12-18T03:09:17;18;16;
74333;PMS5003;62753;40.394;-80.022;2022-12-18T03:11:43;19;17;
74333;PMS5003;62753;40.394;-80.022;2022-12-18T03:14:08;19;19;
74333;PMS5003;62753;40.394;-80.022;2022-12-18T03:16:33;22;18;
74333;PMS5003;62753;40.394;-80.022;2022-12-18T03:19:00;21;18;
74333;PMS5003;62753;40.394;-80.022;2022-12-18T03:21:26;18;18;
74333;PMS5003;62753;40.394;-80.022;2022-12-18T03:23:50;17;17;
74333;PMS5003;62753;40.394;-80.022;2022-12-18T03:26:16;23;21;
74333;PMS5003;62753;40.394;-80.022;2022-12-18T03:28:42;20;16;
74333;PMS5003;62753;40.394;-80.022;2022-12-18T03:31:07;22;19;
74333;PMS5003;62753;40.394;-80.022;2022-12-18T03:33:32;17;17;
74333;PMS5003;62753;40.394;-80.022;2022-12-18T03:35:57;17;17;
74333;PMS5003;62753;40.394;-80.022;2022-12-18T03:38:22;21;19;
74333;PMS5003;62753;40.394;-80.022;2022-12-18T03:40:51;22;19;
74333;PMS5003;62753;40.394;-80.022;2022-12-18T03:43:16;21;20;
74333;PMS5003;62753;40.394;-80.022;2022-12-18T03:45:41;22;22;
74333;PMS5003;62753;40.394;-80.022;2022-12-18T03:48:06;22;20;
74333;PMS5003;62753;40.394;-80.022;2022-12-18T03:50:34;21;19;
74333;PMS5003;62753;40.394;-80.022;2022-12-18T03:52:56;18;17;
74333;PMS5003;62753;40.394;-80.022;2022-12-18T03:55:20;21;20;
74333;PMS5003;62753;40.394;-80.022;2022-12-18T03:57:46;19;17;
74333;PMS5003;62753;40.394;-80.022;2022-12-18T04:00:12;21;21;
74333;PMS5003;62753;40.394;-80.022;2022-12-18T04:02:37;21;18;
74333;PMS5003;62753;40.394;-80.022;2022-12-18T04:05:03;29;25;
74333;PMS5003;62753;40.394;-80.022;2022-12-18T04:07:28;26;22;
74333;PMS5003;62753;40.394;-80.022;2022-12-18T04:09:55;22;21;
74333;PMS5003;62753;40.394;-80.022;2022-12-18T04:12:19;23;22;
74333;PMS5003;62753;40.394;-80.022;2022-12-18T04:14:45;18;18;
74333;PMS5003;62753;40.394;-80.022;2022-12-18T04:17:10;21;19;
74333;PMS5003;62753;40.394;-80.022;2022-12-18T04:19:36;24;21;
74333;PMS5003;62753;40.394;-80.022;2022-12-18T04:22:01;19;17;
74333;PMS5003;62753;40.394;-80.022;2022-12-18T04:24:26;23;22;
74333;PMS5003;62753;40.394;-80.022;2022-12-18T04:26:51;25;21;
74333;PMS5003;62753;40.394;-80.022;2022-12-18T04:29:17;21;19;
74333;PMS5003;62753;40.394;-80.022;2022-12-18T04:31:42;21;19;
74333;PMS5003;62753;40.394;-80.022;2022-12-18T04:34:07;23;17;
74333;PMS5003;62753;40.394;-80.022;2022-12-18T04:36:33;22;21;
74333;PMS5003;62753;40.394;-80.022;2022-12-18T04:38:58;21;20;
74333;PMS5003;62753;40.394;-80.022;2022-12-18T04:41:24;21;19;
74333;PMS5003;62753;40.394;-80.022;2022-12-18T04:43:49;22;22;
74333;PMS5003;62753;40.394;-80.022;2022-12-18T04:46:14;24;21;
74333;PMS5003;62753;40.394;-80.022;2022-12-18T04:48:40;25;20;
74333;PMS5003;62753;40.394;-80.022;2022-12-18T04:51:06;22;22;
74333;PMS5003;62753;40.394;-80.022;2022-12-18T04:53:31;23;22;
74333;PMS5003;62753;40.394;-80.022;2022-12-18T04:56:03;24;24;
74333;PMS5003;62753;40.394;-80.022;2022-12-18T04:58:22;22;21;
74333;PMS5003;62753;40.394;-80.022;2022-12-18T05:00:48;22;22;
74333;PMS5003;62753;40.394;-80.022;2022-12-18T05:03:13;23;23;
74333;PMS5003;62753;40.394;-80.022;2022-12-18T05:05:38;29;25;
74333;PMS5003;62753;40.394;-80.022;2022-12-18T05:08:03;22;21;
74333;PMS5003;62753;40.394;-80.022;2022-12-18T05:10:28;23;21;
74333;PMS5003;62753;40.394;-80.022;2022-12-18T05:12:54;30;24;
74333;PMS5003;62753;40.394;-80.022;2022-12-18T05:15:19;28;28;
74333;PMS5003;62753;40.394;-80.022;2022-12-18T05:17:44;25;22;
74333;PMS5003;62753;40.394;-80.022;2022-12-18T05:20:10;23;18;
74333;PMS5003;62753;40.394;-80.022;2022-12-18T05:22:36;26;24;
74333;PMS5003;62753;40.394;-80.022;2022-12-18T05:25:01;23;22;
74333;PMS5003;62753;40.394;-80.022;2022-12-18T05:27:27;27;24;
74333;PMS5003;62753;40.394;-80.022;2022-12-18T05:29:51;23;22;
74333;PMS5003;62753;40.394;-80.022;2022-12-18T05:32:17;24;23;
74333;PMS5003;62753;40.394;-80.022;2022-12-18T05:34:42;25;24;
74333;PMS5003;62753;40.394;-80.022;2022-12-18T05:37:08;22;22;
74333;PMS5003;62753;40.394;-80.022;2022-12-18T05:39:33;27;25;
74333;PMS5003;62753;40.394;-80.022;2022-12-18T05:41:59;29;25;
74333;PMS5003;62753;40.394;-80.022;2022-12-18T05:44:24;24;23;
74333;PMS5003;62753;40.394;-80.022;2022-12-18T05:46:50;22;21;
74333;PMS5003;62753;40.394;-80.022;2022-12-18T05:49:15;25;25;
74333;PMS5003;62753;40.394;-80.022;2022-12-18T05:51:40;21;18;
74333;PMS5003;62753;40.394;-80.022;2022-12-18T05:54:05;28;23;
74333;PMS5003;62753;40.394;-80.022;2022-12-18T05:56:31;29;23;
74333;PMS5003;62753;40.394;-80.022;2022-12-18T05:58:56;27;25;
74333;PMS5003;62753;40.394;-80.022;2022-12-18T06:01:23;30;27;
74333;PMS5003;62753;40.394;-80.022;2022-12-18T06:03:47;30;27;
74333;PMS5003;62753;40.394;-80.022;2022-12-18T06:06:13;29;26;
74333;PMS5003;62753;40.394;-80.022;2022-12-18T06:08:38;25;21;
74333;PMS5003;62753;40.394;-80.022;2022-12-18T06:11:03;25;23;
74333;PMS5003;62753;40.394;-80.022;2022-12-18T06:13:28;26;23;
74333;PMS5003;62753;40.394;-80.022;2022-12-18T06:15:54;26;25;
74333;PMS5003;62753;40.394;-80.022;2022-12-18T06:18:20;35;33;
74333;PMS5003;62753;40.394;-80.022;2022-12-18T06:20:51;29;29;
74333;PMS5003;62753;40.394;-80.022;2022-12-18T06:23:11;21;20;
74333;PMS5003;62753;40.394;-80.022;2022-12-18T06:25:37;22;18;
74333;PMS5003;62753;40.394;-80.022;2022-12-18T06:28:02;17;16;
74333;PMS5003;62753;40.394;-80.022;2022-12-18T06:30:28;20;20;
74333;PMS5003;62753;40.394;-80.022;2022-12-18T06:32:54;21;19;
74333;PMS5003;62753;40.394;-80.022;2022-12-18T06:35:19;19;19;
74333;PMS5003;62753;40.394;-80.022;2022-12-18T06:37:45;17;17;
74333;PMS5003;62753;40.394;-80.022;2022-12-18T06:40:10;17;17;
74333;PMS5003;62753;40.394;-80.022;2022-12-18T06:42:36;17;17;
74333;PMS5003;62753;40.394;-80.022;2022-12-18T06:45:01;18;17;
74333;PMS5003;62753;40.394;-80.022;2022-12-18T06:47:27;21;20;
74333;PMS5003;62753;40.394;-80.022;2022-12-18T06:49:52;19;17;
74333;PMS5003;62753;40.394;-80.022;2022-12-18T06:52:18;15;15;
74333;PMS5003;62753;40.394;-80.022;2022-12-18T06:54:44;18;17;
74333;PMS5003;62753;40.394;-80.022;2022-12-18T06:57:09;23;18;
74333;PMS5003;62753;40.394;-80.022;2022-12-18T06:59:35;16;15;
74333;PMS5003;62753;40.394;-80.022;2022-12-18T07:02:00;18;18;
74333;PMS5003;62753;40.394;-80.022;2022-12-18T07:04:27;19;19;
74333;PMS5003;62753;40.394;-80.022;2022-12-18T07:06:51;18;16;
74333;PMS5003;62753;40.394;-80.022;2022-12-18T07:09:17;18;16;
74333;PMS5003;62753;40.394;-80.022;2022-12-18T07:11:42;21;19;
74333;PMS5003;62753;40.394;-80.022;2022-12-18T07:14:08;25;20;
74333;PMS5003;62753;40.394;-80.022;2022-12-18T07:16:33;21;21;
74333;PMS5003;62753;40.394;-80.022;2022-12-18T07:18:59;16;16;
74333;PMS5003;62753;40.394;-80.022;2022-12-18T07:21:24;25;23;
74333;PMS5003;62753;40.394;-80.022;2022-12-18T07:23:50;21;20;
74333;PMS5003;62753;40.394;-80.022;2022-12-18T07:26:16;23;23;
74333;PMS5003;62753;40.394;-80.022;2022-12-18T07:28:41;24;23;
74333;PMS5003;62753;40.394;-80.022;2022-12-18T07:31:07;27;24;
74333;PMS5003;62753;40.394;-80.022;2022-12-18T07:33:32;25;21;
74333;PMS5003;62753;40.394;-80.022;2022-12-18T07:35:58;20;19;
74333;PMS5003;62753;40.394;-80.022;2022-12-18T07:38:23;19;19;
74333;PMS5003;62753;40.394;-80.022;2022-12-18T07:40:49;22;21;
74333;PMS5003;62753;40.394;-80.022;2022-12-18T07:43:15;19;19;
74333;PMS5003;62753;40.394;-80.022;2022-12-18T07:45:41;21;21;
74333;PMS5003;62753;40.394;-80.022;2022-12-18T07:48:05;21;21;
74333;PMS5003;62753;40.394;-80.022;2022-12-18T07:50:31;27;26;
74333;PMS5003;62753;40.394;-80.022;2022-12-18T07:52:57;20;20;
74333;PMS5003;62753;40.394;-80.022;2022-12-18T07:55:22;23;23;
74333;PMS5003;62753;40.394;-80.022;2022-12-18T07:57:48;21;21;
74333;PMS5003;62753;40.394;-80.022;2022-12-18T08:00:14;26;23;
74333;PMS5003;62753;40.394;-80.022;2022-12-18T08:02:39;25;21;
74333;PMS5003;62753;40.394;-80.022;2022-12-18T08:05:05;23;21;
74333;PMS5003;62753;40.394;-80.022;2022-12-18T08:07:30;23;20;
74333;PMS5003;62753;40.394;-80.022;2022-12-18T08:09:55;28;24;
74333;PMS5003;62753;40.394;-80.022;2022-12-18T08:12:21;26;23;
74333;PMS5003;62753;40.394;-80.022;2022-12-18T08:14:46;24;21;
74333;PMS5003;62753;40.394;-80.022;2022-12-18T08:17:12;25;23;
74333;PMS5003;62753;40.394;-80.022;2022-12-18T08:19:37;24;23;
74333;PMS5003;62753;40.394;-80.022;2022-12-18T08:22:02;29;26;
74333;PMS5003;62753;40.394;-80.022;2022-12-18T08:24:28;22;20;
74333;PMS5003;62753;40.394;-80.022;2022-12-18T08:26:53;24;23;
74333;PMS5003;62753;40.394;-80.022;2022-12-18T08:29:18;24;22;
74333;PMS5003;62753;40.394;-80.022;2022-12-18T08:31:43;28;25;
74333;PMS5003;62753;40.394;-80.022;2022-12-18T08:34:09;25;25;
74333;PMS5003;62753;40.394;-80.022;2022-12-18T08:36:35;30;26;
74333;PMS5003;62753;40.394;-80.022;2022-12-18T08:39:01;24;22;
74333;PMS5003;62753;40.394;-80.022;2022-12-18T08:41:26;26;23;
74333;PMS5003;62753;40.394;-80.022;2022-12-18T08:43:51;26;25;
74333;PMS5003;62753;40.394;-80.022;2022-12-18T08:46:17;33;29;
74333;PMS5003;62753;40.394;-80.022;2022-12-18T08:48:42;26;25;
74333;PMS5003;62753;40.394;-80.022;2022-12-18T08:51:07;24;23;
74333;PMS5003;62753;40.394;-80.022;2022-12-18T08:53:33;29;23;
74333;PMS5003;62753;40.394;-80.022;2022-12-18T08:55:58;23;21;
74333;PMS5003;62753;40.394;-80.022;2022-12-18T08:58:23;28;24;
74333;PMS5003;62753;40.394;-80.022;2022-12-18T09:00:48;24;23;
74333;PMS5003;62753;40.394;-80.022;2022-12-18T09:03:15;21;20;
74333;PMS5003;62753;40.394;-80.022;2022-12-18T09:05:40;21;21;
74333;PMS5003;62753;40.394;-80.022;2022-12-18T09:08:05;26;25;
74333;PMS5003;62753;40.394;-80.022;2022-12-18T09:10:31;25;24;
74333;PMS5003;62753;40.394;-80.022;2022-12-18T09:12:56;23;21;
74333;PMS5003;62753;40.394;-80.022;2022-12-18T09:15:21;24;23;
74333;PMS5003;62753;40.394;-80.022;2022-12-18T09:17:47;25;23;
74333;PMS5003;62753;40.394;-80.022;2022-12-18T09:20:12;26;26;
74333;PMS5003;62753;40.394;-80.022;2022-12-18T09:22:37;26;24;
74333;PMS5003;62753;40.394;-80.022;2022-12-18T09:25:03;32;29;
74333;PMS5003;62753;40.394;-80.022;2022-12-18T09:27:28;20;20;
74333;PMS5003;62753;40.394;-80.022;2022-12-18T09:29:53;31;27;
74333;PMS5003;62753;40.394;-80.022;2022-12-18T09:32:19;27;26;
74333;PMS5003;62753;40.394;-80.022;2022-12-18T09:34:44;31;25;
74333;PMS5003;62753;40.394;-80.022;2022-12-18T09:37:10;29;27;
74333;PMS5003;62753;40.394;-80.022;2022-12-18T09:39:36;25;24;
74333;PMS5003;62753;40.394;-80.022;2022-12-18T09:42:01;29;25;
74333;PMS5003;62753;40.394;-80.022;2022-12-18T09:44:27;26;25;
74333;PMS5003;62753;40.394;-80.022;2022-12-18T09:46:54;27;23;
74333;PMS5003;62753;40.394;-80.022;2022-12-18T09:49:18;24;21;
74333;PMS5003;62753;40.394;-80.022;2022-12-18T09:51:43;24;23;
74333;PMS5003;62753;40.394;-80.022;2022-12-18T09:54:11;20;19;
74333;PMS5003;62753;40.394;-80.022;2022-12-18T09:56:35;27;26;
74333;PMS5003;62753;40.394;-80.022;2022-12-18T09:58:59;24;24;
74333;PMS5003;62753;40.394;-80.022;2022-12-18T10:01:24;23;23;
74333;PMS5003;62753;40.394;-80.022;2022-12-18T10:03:49;41;32;
74333;PMS5003;62753;40.394;-80.022;2022-12-18T10:06:18;23;23;
74333;PMS5003;62753;40.394;-80.022;2022-12-18T10:08:41;44;35;
74333;PMS5003;62753;40.394;-80.022;2022-12-18T10:13:33;24;23;
74333;PMS5003;62753;40.394;-80.022;2022-12-18T10:16:00;24;23;
74333;PMS5003;62753;40.394;-80.022;2022-12-18T10:18:25;25;24;
74333;PMS5003;62753;40.394;-80.022;2022-12-18T10:20:48;25;24;
74333;PMS5003;62753;40.394;-80.022;2022-12-18T10:23:14;24;23;
74333;PMS5003;62753;40.394;-80.022;2022-12-18T10:25:40;31;31;
74333;PMS5003;62753;40.394;-80.022;2022-12-18T10:28:07;25;24;
74333;PMS5003;62753;40.394;-80.022;2022-12-18T10:30:29;29;26;
74333;PMS5003;62753;40.394;-80.022;2022-12-18T10:32:58;22;20;
74333;PMS5003;62753;40.394;-80.022;2022-12-18T10:35:21;22;22;
74333;PMS5003;62753;40.394;-80.022;2022-12-18T10:40:12;28;22;
74333;PMS5003;62753;40.394;-80.022;2022-12-18T10:42:37;24;22;
74333;PMS5003;62753;40.394;-80.022;2022-12-18T10:45:03;32;24;
74333;PMS5003;62753;40.394;-80.022;2022-12-18T10:47:27;27;22;
74333;PMS5003;62753;40.394;-80.022;2022-12-18T10:49:53;21;19;
74333;PMS5003;62753;40.394;-80.022;2022-12-18T10:52:20;23;23;
74333;PMS5003;62753;40.394;-80.022;2022-12-18T10:54:48;22;19;
74333;PMS5003;62753;40.394;-80.022;2022-12-18T10:57:15;24;20;
74333;PMS5003;62753;40.394;-80.022;2022-12-18T10:59:36;27;23;
74333;PMS5003;62753;40.394;-80.022;2022-12-18T11:02:00;31;31;
74333;PMS5003;62753;40.394;-80.022;2022-12-18T11:04:26;27;25;
74333;PMS5003;62753;40.394;-80.022;2022-12-18T11:06:54;29;27;
74333;PMS5003;62753;40.394;-80.022;2022-12-18T11:09:19;23;21;
74333;PMS5003;62753;40.394;-80.022;2022-12-18T11:11:42;21;19;
74333;PMS5003;62753;40.394;-80.022;2022-12-18T11:14:12;26;25;
74333;PMS5003;62753;40.394;-80.022;2022-12-18T11:16:34;26;24;
74333;PMS5003;62753;40.394;-80.022;2022-12-18T11:21:23;24;24;
74333;PMS5003;62753;40.394;-80.022;2022-12-18T11:23:49;28;22;
74333;PMS5003;62753;40.394;-80.022;2022-12-18T11:26:14;21;21;
74333;PMS5003;62753;40.394;-80.022;2022-12-18T11:28:46;33;25;
74333;PMS5003;62753;40.394;-80.022;2022-12-18T11:31:11;29;27;
74333;PMS5003;62753;40.394;-80.022;2022-12-18T11:33:30;24;20;
74333;PMS5003;62753;40.394;-80.022;2022-12-18T11:35:56;29;25;
74333;PMS5003;62753;40.394;-80.022;2022-12-18T11:38:22;28;23;
74333;PMS5003;62753;40.394;-80.022;2022-12-18T11:40:49;23;22;
74333;PMS5003;62753;40.394;-80.022;2022-12-18T11:44:22;14;14;
74333;PMS5003;62753;40.394;-80.022;2022-12-18T11:46:47;31;26;
74333;PMS5003;62753;40.394;-80.022;2022-12-18T11:49:14;28;22;
74333;PMS5003;62753;40.394;-80.022;2022-12-18T11:51:42;24;23;
74333;PMS5003;62753;40.394;-80.022;2022-12-18T11:54:07;18;17;
74333;PMS5003;62753;40.394;-80.022;2022-12-18T11:56:30;28;22;
74333;PMS5003;62753;40.394;-80.022;2022-12-18T11:58:56;22;21;
74333;PMS5003;62753;40.394;-80.022;2022-12-18T12:01:23;18;18;
74333;PMS5003;62753;40.394;-80.022;2022-12-18T12:03:49;17;16;
74333;PMS5003;62753;40.394;-80.022;2022-12-18T12:06:12;18;18;
74333;PMS5003;62753;40.394;-80.022;2022-12-18T12:08:39;16;15;
74333;PMS5003;62753;40.394;-80.022;2022-12-18T12:11:02;25;20;
74333;PMS5003;62753;40.394;-80.022;2022-12-18T12:13:31;17;16;
74333;PMS5003;62753;40.394;-80.022;2022-12-18T12:15:56;17;15;
74333;PMS5003;62753;40.394;-80.022;2022-12-18T12:18:21;17;13;
74333;PMS5003;62753;40.394;-80.022;2022-12-18T12:20:47;15;13;
74333;PMS5003;62753;40.394;-80.022;2022-12-18T12:23:12;15;13;
74333;PMS5003;62753;40.394;-80.022;2022-12-18T12:25:36;15;13;
74333;PMS5003;62753;40.394;-80.022;2022-12-18T12:28:05;13;13;
74333;PMS5003;62753;40.394;-80.022;2022-12-18T12:30:29;15;15;
74333;PMS5003;62753;40.394;-80.022;2022-12-18T12:32:57;13;13;
74333;PMS5003;62753;40.394;-80.022;2022-12-18T12:35:22;15;15;
74333;PMS5003;62753;40.394;-80.022;2022-12-18T12:37:44;12;12;
74333;PMS5003;62753;40.394;-80.022;2022-12-18T12:40:10;15;13;
74333;PMS5003;62753;40.394;-80.022;2022-12-18T12:42:37;13;13;
74333;PMS5003;62753;40.394;-80.022;2022-12-18T12:45:00;15;13;
74333;PMS5003;62753;40.394;-80.022;2022-12-18T12:47:26;17;17;
74333;PMS5003;62753;40.394;-80.022;2022-12-18T12:49:51;15;13;
74333;PMS5003;62753;40.394;-80.022;2022-12-18T12:52:17;19;16;
74333;PMS5003;62753;40.394;-80.022;2022-12-18T12:54:42;16;15;
74333;PMS5003;62753;40.394;-80.022;2022-12-18T12:57:09;12;12;
74333;PMS5003;62753;40.394;-80.022;2022-12-18T12:59:35;15;15;
74333;PMS5003;62753;40.394;-80.022;2022-12-18T13:01:59;17;16;
74333;PMS5003;62753;40.394;-80.022;2022-12-18T13:04:26;16;15;
74333;PMS5003;62753;40.394;-80.022;2022-12-18T13:06:52;20;16;
74333;PMS5003;62753;40.394;-80.022;2022-12-18T13:09:15;18;17;
74333;PMS5003;62753;40.394;-80.022;2022-12-18T13:11:41;15;15;
74333;PMS5003;62753;40.394;-80.022;2022-12-18T13:14:12;19;16;
74333;PMS5003;62753;40.394;-80.022;2022-12-18T13:16:32;15;15;
74333;PMS5003;62753;40.394;-80.022;2022-12-18T13:18:58;17;15;
74333;PMS5003;62753;40.394;-80.022;2022-12-18T13:21:25;22;20;
74333;PMS5003;62753;40.394;-80.022;2022-12-18T13:23:49;17;16;
74333;PMS5003;62753;40.394;-80.022;2022-12-18T13:31:05;19;19;
74333;PMS5003;62753;40.394;-80.022;2022-12-18T13:36:00;25;22;
74333;PMS5003;62753;40.394;-80.022;2022-12-18T13:38:22;20;17;
74333;PMS5003;62753;40.394;-80.022;2022-12-18T13:45:42;24;19;
74333;PMS5003;62753;40.394;-80.022;2022-12-18T13:48:10;18;17;
74333;PMS5003;62753;40.394;-80.022;2022-12-18T13:50:30;22;21;
74333;PMS5003;62753;40.394;-80.022;2022-12-18T13:52:56;22;18;
74333;PMS5003;62753;40.394;-80.022;2022-12-18T13:55:21;20;18;
74333;PMS5003;62753;40.394;-80.022;2022-12-18T13:57:47;26;23;
74333;PMS5003;62753;40.394;-80.022;2022-12-18T14:00:23;15;15;
74333;PMS5003;62753;40.394;-80.022;2022-12-18T14:02:38;24;17;
74333;PMS5003;62753;40.394;-80.022;2022-12-18T14:05:04;20;17;
74333;PMS5003;62753;40.394;-80.022;2022-12-18T14:07:29;15;13;
74333;PMS5003;62753;40.394;-80.022;2022-12-18T14:09:55;20;18;
74333;PMS5003;62753;40.394;-80.022;2022-12-18T14:12:21;21;20;
74333;PMS5003;62753;40.394;-80.022;2022-12-18T14:14:46;20;18;
74333;PMS5003;62753;40.394;-80.022;2022-12-18T14:17:12;18;18;
74333;PMS5003;62753;40.394;-80.022;2022-12-18T14:19:37;21;17;
74333;PMS5003;62753;40.394;-80.022;2022-12-18T14:22:02;20;17;
74333;PMS5003;62753;40.394;-80.022;2022-12-18T14:24:28;23;18;
74333;PMS5003;62753;40.394;-80.022;2022-12-18T14:26:54;20;20;
74333;PMS5003;62753;40.394;-80.022;2022-12-18T14:29:22;15;15;
74333;PMS5003;62753;40.394;-80.022;2022-12-18T14:31:45;18;18;
74333;PMS5003;62753;40.394;-80.022;2022-12-18T14:34:14;18;17;
74333;PMS5003;62753;40.394;-80.022;2022-12-18T14:36:36;21;21;
74333;PMS5003;62753;40.394;-80.022;2022-12-18T14:39:01;16;16;
74333;PMS5003;62753;40.394;-80.022;2022-12-18T14:41:27;19;18;
74333;PMS5003;62753;40.394;-80.022;2022-12-18T14:43:53;22;19;
74333;PMS5003;62753;40.394;-80.022;2022-12-18T14:46:28;19;18;
74333;PMS5003;62753;40.394;-80.022;2022-12-18T14:48:44;19;17;
74333;PMS5003;62753;40.394;-80.022;2022-12-18T14:51:15;17;16;
74333;PMS5003;62753;40.394;-80.022;2022-12-18T14:53:36;19;18;
74333;PMS5003;62753;40.394;-80.022;2022-12-18T14:56:01;16;14;
74333;PMS5003;62753;40.394;-80.022;2022-12-18T14:58:26;14;13;
74333;PMS5003;62753;40.394;-80.022;2022-12-18T15:00:52;17;16;
74333;PMS5003;62753;40.394;-80.022;2022-12-18T15:03:18;17;14;
74333;PMS5003;62753;40.394;-80.022;2022-12-18T15:05:43;19;18;
74333;PMS5003;62753;40.394;-80.022;2022-12-18T15:10:34;17;16;
74333;PMS5003;62753;40.394;-80.022;2022-12-18T15:13:22;20;14;
74333;PMS5003;62753;40.394;-80.022;2022-12-18T15:20:15;17;15;
74333;PMS5003;62753;40.394;-80.022;2022-12-18T15:22:40;20;17;
74333;PMS5003;62753;40.394;-80.022;2022-12-18T15:27:32;19;16;
74333;PMS5003;62753;40.394;-80.022;2022-12-18T15:32:23;16;15;
74333;PMS5003;62753;40.394;-80.022;2022-12-18T15:34:48;16;14;
74333;PMS5003;62753;40.394;-80.022;2022-12-18T15:37:14;18;18;
74333;PMS5003;62753;40.394;-80.022;2022-12-18T15:39:39;18;17;
74333;PMS5003;62753;40.394;-80.022;2022-12-18T15:42:07;18;15;
74333;PMS5003;62753;40.394;-80.022;2022-12-18T15:44:30;19;18;
74333;PMS5003;62753;40.394;-80.022;2022-12-18T15:46:56;18;17;
74333;PMS5003;62753;40.394;-80.022;2022-12-18T15:49:21;18;15;
74333;PMS5003;62753;40.394;-80.022;2022-12-18T15:51:46;18;17;
74333;PMS5003;62753;40.394;-80.022;2022-12-18T15:54:13;18;15;
74333;PMS5003;62753;40.394;-80.022;2022-12-18T15:56:37;20;16;
74333;PMS5003;62753;40.394;-80.022;2022-12-18T15:59:04;14;12;
74333;PMS5003;62753;40.394;-80.022;2022-12-18T16:01:29;17;17;
74333;PMS5003;62753;40.394;-80.022;2022-12-18T16:03:54;16;16;
74333;PMS5003;62753;40.394;-80.022;2022-12-18T16:06:19;19;14;
74333;PMS5003;62753;40.394;-80.022;2022-12-18T16:08:45;19;17;